createdAt,value
2018-05-19T00:00:18.605Z,993.04
2018-05-19T00:01:20.364Z,993.03
2018-05-19T00:02:18.959Z,993.05
2018-05-19T00:03:19.204Z,993.07
2018-05-19T00:04:21.354Z,993.06
2018-05-19T00:05:21.363Z,993.07
2018-05-19T00:06:19.697Z,993.07
2018-05-19T00:07:19.912Z,993.10
2018-05-19T00:08:20.120Z,993.10
2018-05-19T00:09:21.867Z,993.07
2018-05-19T00:10:20.463Z,993.07
2018-05-19T00:11:20.692Z,993.09
2018-05-19T00:12:21.978Z,993.03
2018-05-19T00:13:22.860Z,993.02
2018-05-19T00:14:22.853Z,993.08
2018-05-19T00:15:24.371Z,993.04
2018-05-19T00:16:21.597Z,993.03
2018-05-19T00:17:21.854Z,993.01
2018-05-19T00:18:22.029Z,993.00
2018-05-19T00:19:22.253Z,993.03
2018-05-19T00:20:22.468Z,993.05
2018-05-19T00:21:22.679Z,993.01
2018-05-19T00:22:22.881Z,993.06
2018-05-19T00:23:25.853Z,993.07
2018-05-19T00:24:24.889Z,993.05
2018-05-19T00:25:29.443Z,993.06
2018-05-19T00:26:25.356Z,993.02
2018-05-19T00:27:23.834Z,993.04
2018-05-19T00:28:24.069Z,993.05
2018-05-19T00:29:25.270Z,993.04
2018-05-19T00:30:24.489Z,993.05
2018-05-19T00:31:24.706Z,993.04
2018-05-19T00:32:24.908Z,993.01
2018-05-19T00:33:25.136Z,993.05
2018-05-19T00:34:25.396Z,993.02
2018-05-19T00:35:25.577Z,993.01
2018-05-19T00:36:25.796Z,993.04
2018-05-19T00:37:27.855Z,993.08
2018-05-19T00:38:26.198Z,993.03
2018-05-19T00:39:26.422Z,993.02
2018-05-19T00:40:26.633Z,993.06
2018-05-19T00:41:26.853Z,993.07
2018-05-19T00:42:27.069Z,993.06
2018-05-19T00:43:27.291Z,993.04
2018-05-19T00:44:27.497Z,993.06
2018-05-19T00:45:27.710Z,993.08
2018-05-19T00:46:29.867Z,993.07
2018-05-19T00:47:28.115Z,993.06
2018-05-19T00:48:29.864Z,993.04
2018-05-19T00:49:28.447Z,993.02
2018-05-19T00:50:28.667Z,993.04
2018-05-19T00:51:30.860Z,993.04
2018-05-19T00:52:29.081Z,993.02
2018-05-19T00:53:29.192Z,993.06
2018-05-19T00:54:29.402Z,993.01
2018-05-19T00:55:29.614Z,993.00
2018-05-19T00:56:29.828Z,992.96
2018-05-19T00:57:31.858Z,992.99
2018-05-19T00:58:31.863Z,992.98
2018-05-19T00:59:30.347Z,992.99
2018-05-19T01:00:33.365Z,993.00
2018-05-19T01:01:30.702Z,993.01
2018-05-19T01:02:32.864Z,993.02
2018-05-19T01:03:31.072Z,993.01
2018-05-19T01:04:32.854Z,993.00
2018-05-19T01:05:31.432Z,993.05
2018-05-19T01:06:34.358Z,993.00
2018-05-19T01:07:31.825Z,993.02
2018-05-19T01:08:33.853Z,993.03
2018-05-19T01:09:32.206Z,992.99
2018-05-19T01:10:32.430Z,992.97
2018-05-19T01:11:32.653Z,992.97
2018-05-19T01:12:36.353Z,992.97
2018-05-19T01:13:33.072Z,992.97
2018-05-19T01:14:33.281Z,992.97
2018-05-19T01:15:33.487Z,993.01
2018-05-19T01:16:35.366Z,992.91
2018-05-19T01:17:33.837Z,992.89
2018-05-19T01:18:34.050Z,992.92
2018-05-19T01:19:34.260Z,992.94
2018-05-19T01:20:34.472Z,992.92
2018-05-19T01:21:38.355Z,992.89
2018-05-19T01:22:36.388Z,992.85
2018-05-19T01:23:34.948Z,992.88
2018-05-19T01:24:35.185Z,992.83
2018-05-19T01:25:37.371Z,992.84
2018-05-19T01:26:35.576Z,992.89
2018-05-19T01:27:37.372Z,992.88
2018-05-19T01:28:35.977Z,992.87
2018-05-19T01:29:36.222Z,992.85
2018-05-19T01:30:36.415Z,992.90
2018-05-19T01:31:36.619Z,992.88
2018-05-19T01:32:36.844Z,992.84
2018-05-19T01:33:38.891Z,992.90
2018-05-19T01:34:37.250Z,992.84
2018-05-19T01:35:37.508Z,992.87
2018-05-19T01:36:37.583Z,992.89
2018-05-19T01:37:37.803Z,992.89
2018-05-19T01:38:38.025Z,992.89
2018-05-19T01:39:38.233Z,992.90
2018-05-19T01:40:38.436Z,992.87
2018-05-19T01:41:38.654Z,992.85
2018-05-19T01:42:38.867Z,992.82
2018-05-19T01:43:39.091Z,992.84
2018-05-19T01:44:40.866Z,992.81
2018-05-19T01:45:39.482Z,992.85
2018-05-19T01:46:39.673Z,992.82
2018-05-19T01:47:39.895Z,992.86
2018-05-19T01:48:42.863Z,992.83
2018-05-19T01:49:40.321Z,992.82
2018-05-19T01:50:42.393Z,992.82
2018-05-19T01:51:40.705Z,992.83
2018-05-19T01:52:43.875Z,992.80
2018-05-19T01:53:41.097Z,992.85
2018-05-19T01:54:42.859Z,992.82
2018-05-19T01:55:41.459Z,992.83
2018-05-19T01:56:41.655Z,992.82
2018-05-19T01:57:41.766Z,992.81
2018-05-19T01:58:43.853Z,992.79
2018-05-19T01:59:42.196Z,992.82
2018-05-19T02:00:42.412Z,992.81
2018-05-19T02:01:43.623Z,992.78
2018-05-19T02:02:42.905Z,992.77
2018-05-19T02:03:43.065Z,992.78
2018-05-19T02:04:43.292Z,992.78
2018-05-19T02:05:44.528Z,992.78
2018-05-19T02:06:45.360Z,992.78
2018-05-19T02:07:45.372Z,992.81
2018-05-19T02:08:43.949Z,992.80
2018-05-19T02:09:44.158Z,992.81
2018-05-19T02:10:46.367Z,992.79
2018-05-19T02:11:44.579Z,992.82
2018-05-19T02:12:44.793Z,992.80
2018-05-19T02:13:45.007Z,992.79
2018-05-19T02:14:45.214Z,992.76
2018-05-19T02:15:45.436Z,992.78
2018-05-19T02:16:45.638Z,992.80
2018-05-19T02:17:45.843Z,992.78
2018-05-19T02:18:47.852Z,992.77
2018-05-19T02:19:46.185Z,992.81
2018-05-19T02:20:46.540Z,992.80
2018-05-19T02:21:46.622Z,992.79
2018-05-19T02:22:46.848Z,992.82
2018-05-19T02:23:48.862Z,992.74
2018-05-19T02:24:47.219Z,992.70
2018-05-19T02:25:47.404Z,992.73
2018-05-19T02:26:47.641Z,992.71
2018-05-19T02:27:47.845Z,992.72
2018-05-19T02:28:51.855Z,992.69
2018-05-19T02:29:49.203Z,992.69
2018-05-19T02:30:48.454Z,992.68
2018-05-19T02:31:50.358Z,992.68
2018-05-19T02:32:50.385Z,992.66
2018-05-19T02:33:50.358Z,992.69
2018-05-19T02:34:49.077Z,992.68
2018-05-19T02:35:49.302Z,992.64
2018-05-19T02:36:51.352Z,992.64
2018-05-19T02:37:52.363Z,992.60
2018-05-19T02:38:51.355Z,992.57
2018-05-19T02:39:49.937Z,992.61
2018-05-19T02:40:50.161Z,992.61
2018-05-19T02:41:51.380Z,992.58
2018-05-19T02:42:50.635Z,992.58
2018-05-19T02:43:52.358Z,992.60
2018-05-19T02:44:50.937Z,992.58
2018-05-19T02:45:51.179Z,992.57
2018-05-19T02:46:51.401Z,992.58
2018-05-19T02:47:51.625Z,992.65
2018-05-19T02:48:53.362Z,992.63
2018-05-19T02:49:51.956Z,992.64
2018-05-19T02:50:53.163Z,992.67
2018-05-19T02:51:52.387Z,992.66
2018-05-19T02:52:52.595Z,992.65
2018-05-19T02:53:52.799Z,992.66
2018-05-19T02:54:53.017Z,992.62
2018-05-19T02:55:53.221Z,992.63
2018-05-19T02:56:53.439Z,992.70
2018-05-19T02:57:55.376Z,992.64
2018-05-19T02:58:53.852Z,992.60
2018-05-19T02:59:55.893Z,992.62
2018-05-19T03:00:54.208Z,992.60
2018-05-19T03:01:57.365Z,992.61
2018-05-19T03:02:57.370Z,992.61
2018-05-19T03:03:56.354Z,992.55
2018-05-19T03:04:54.815Z,992.57
2018-05-19T03:05:55.052Z,992.53
2018-05-19T03:06:55.171Z,992.57
2018-05-19T03:07:55.358Z,992.56
2018-05-19T03:08:57.360Z,992.59
2018-05-19T03:09:55.695Z,992.56
2018-05-19T03:10:57.851Z,992.54
2018-05-19T03:11:56.084Z,992.55
2018-05-19T03:12:56.290Z,992.53
2018-05-19T03:13:56.511Z,992.56
2018-05-19T03:14:56.735Z,992.53
2018-05-19T03:15:56.941Z,992.54
2018-05-19T03:17:00.866Z,992.55
2018-05-19T03:17:57.324Z,992.55
2018-05-19T03:18:59.360Z,992.55
2018-05-19T03:19:57.702Z,992.55
2018-05-19T03:20:57.912Z,992.57
2018-05-19T03:21:58.132Z,992.55
2018-05-19T03:22:59.366Z,992.58
2018-05-19T03:23:58.590Z,992.54
2018-05-19T03:24:58.804Z,992.54
2018-05-19T03:25:59.017Z,992.54
2018-05-19T03:26:59.241Z,992.55
2018-05-19T03:27:59.449Z,992.57
2018-05-19T03:29:01.353Z,992.59
2018-05-19T03:29:59.823Z,992.57
2018-05-19T03:31:00.033Z,992.61
2018-05-19T03:32:00.291Z,992.59
2018-05-19T03:33:02.353Z,992.56
2018-05-19T03:34:02.355Z,992.58
2018-05-19T03:35:00.822Z,992.59
2018-05-19T03:36:01.177Z,992.59
2018-05-19T03:37:01.256Z,992.60
2018-05-19T03:38:01.467Z,992.64
2018-05-19T03:39:02.682Z,992.59
2018-05-19T03:40:01.893Z,992.64
2018-05-19T03:41:03.855Z,992.61
2018-05-19T03:42:02.314Z,992.66
2018-05-19T03:43:02.539Z,992.67
2018-05-19T03:44:04.360Z,992.66
2018-05-19T03:45:04.857Z,992.62
2018-05-19T03:46:03.068Z,992.66
2018-05-19T03:47:03.299Z,992.66
2018-05-19T03:48:03.394Z,992.67
2018-05-19T03:49:03.641Z,992.62
2018-05-19T03:50:03.820Z,992.65
2018-05-19T03:51:04.023Z,992.65
2018-05-19T03:52:04.257Z,992.62
2018-05-19T03:53:04.467Z,992.65
2018-05-19T03:54:04.679Z,992.68
2018-05-19T03:55:04.900Z,992.68
2018-05-19T03:56:06.857Z,992.66
2018-05-19T03:57:05.316Z,992.69
2018-05-19T03:58:05.540Z,992.68
2018-05-19T03:59:05.751Z,992.71
2018-05-19T04:00:05.967Z,992.72
2018-05-19T04:01:06.221Z,992.75
2018-05-19T04:02:06.393Z,992.74
2018-05-19T04:03:06.614Z,992.73
2018-05-19T04:04:08.355Z,992.83
2018-05-19T04:05:08.867Z,992.78
2018-05-19T04:06:07.084Z,992.80
2018-05-19T04:07:07.286Z,992.83
2018-05-19T04:08:09.360Z,992.80
2018-05-19T04:09:09.352Z,992.84
2018-05-19T04:10:07.824Z,992.83
2018-05-19T04:11:08.050Z,992.83
2018-05-19T04:12:10.855Z,992.87
2018-05-19T04:13:08.493Z,992.84
2018-05-19T04:14:08.663Z,992.85
2018-05-19T04:15:08.791Z,992.83
2018-05-19T04:16:08.995Z,992.84
2018-05-19T04:17:09.208Z,992.85
2018-05-19T04:18:09.420Z,992.82
2018-05-19T04:19:09.617Z,992.84
2018-05-19T04:20:12.352Z,992.82
2018-05-19T04:21:10.073Z,992.85
2018-05-19T04:22:10.284Z,992.89
2018-05-19T04:23:12.414Z,992.91
2018-05-19T04:24:12.382Z,992.91
2018-05-19T04:25:10.839Z,992.90
2018-05-19T04:26:11.083Z,992.89
2018-05-19T04:27:11.171Z,992.89
2018-05-19T04:28:11.523Z,992.97
2018-05-19T04:29:14.364Z,992.94
2018-05-19T04:30:11.685Z,992.90
2018-05-19T04:31:11.907Z,992.94
2018-05-19T04:32:12.103Z,992.94
2018-05-19T04:33:12.334Z,992.94
2018-05-19T04:34:12.574Z,992.96
2018-05-19T04:35:12.789Z,992.96
2018-05-19T04:36:13.016Z,992.97
2018-05-19T04:37:13.141Z,992.97
2018-05-19T04:38:13.322Z,992.95
2018-05-19T04:39:13.616Z,993.00
2018-05-19T04:40:13.710Z,992.99
2018-05-19T04:41:13.927Z,992.97
2018-05-19T04:42:14.136Z,993.00
2018-05-19T04:43:14.366Z,993.01
2018-05-19T04:44:14.580Z,993.00
2018-05-19T04:45:14.784Z,992.98
2018-05-19T04:46:16.895Z,993.02
2018-05-19T04:47:15.192Z,993.01
2018-05-19T04:48:15.398Z,993.02
2018-05-19T04:49:17.356Z,993.03
2018-05-19T04:50:15.808Z,993.11
2018-05-19T04:51:16.021Z,993.09
2018-05-19T04:52:16.249Z,993.07
2018-05-19T04:53:16.450Z,993.06
2018-05-19T04:54:18.388Z,993.07
2018-05-19T04:55:16.819Z,993.07
2018-05-19T04:56:17.023Z,993.08
2018-05-19T04:57:17.242Z,993.15
2018-05-19T04:58:17.455Z,993.15
2018-05-19T04:59:19.361Z,993.11
2018-05-19T05:00:17.831Z,993.13
2018-05-19T05:01:18.044Z,993.15
2018-05-19T05:02:19.858Z,993.17
2018-05-19T05:03:18.438Z,993.15
2018-05-19T05:04:18.655Z,993.16
2018-05-19T05:05:18.858Z,993.15
2018-05-19T05:06:19.077Z,993.14
2018-05-19T05:07:19.302Z,993.10
2018-05-19T05:08:19.505Z,993.13
2018-05-19T05:09:19.723Z,993.13
2018-05-19T05:10:19.936Z,993.14
2018-05-19T05:11:20.146Z,993.13
2018-05-19T05:12:20.369Z,993.12
2018-05-19T05:13:20.578Z,993.13
2018-05-19T05:14:20.786Z,993.11
2018-05-19T05:15:21.019Z,993.19
2018-05-19T05:16:21.249Z,993.18
2018-05-19T05:17:21.447Z,993.18
2018-05-19T05:18:21.657Z,993.23
2018-05-19T05:19:21.866Z,993.20
2018-05-19T05:20:22.083Z,993.16
2018-05-19T05:21:22.295Z,993.19
2018-05-19T05:22:22.504Z,993.16
2018-05-19T05:23:22.722Z,993.22
2018-05-19T05:24:22.925Z,993.18
2018-05-19T05:25:24.853Z,993.20
2018-05-19T05:26:23.321Z,993.20
2018-05-19T05:27:23.544Z,993.20
2018-05-19T05:28:25.359Z,993.23
2018-05-19T05:29:23.953Z,993.21
2018-05-19T05:30:24.164Z,993.25
2018-05-19T05:31:24.371Z,993.26
2018-05-19T05:32:24.571Z,993.27
2018-05-19T05:33:24.795Z,993.24
2018-05-19T05:34:25.005Z,993.30
2018-05-19T05:35:25.231Z,993.31
2018-05-19T05:36:25.448Z,993.28
2018-05-19T05:37:25.675Z,993.33
2018-05-19T05:38:25.881Z,993.34
2018-05-19T05:39:27.854Z,993.34
2018-05-19T05:40:26.607Z,993.38
2018-05-19T05:41:26.730Z,993.38
2018-05-19T05:42:26.797Z,993.43
2018-05-19T05:43:26.848Z,993.40
2018-05-19T05:44:26.941Z,993.41
2018-05-19T05:45:27.263Z,993.43
2018-05-19T05:46:27.363Z,993.40
2018-05-19T05:47:27.693Z,993.43
2018-05-19T05:48:27.798Z,993.47
2018-05-19T05:49:29.882Z,993.45
2018-05-19T05:50:28.191Z,993.46
2018-05-19T05:51:28.399Z,993.48
2018-05-19T05:52:28.606Z,993.47
2018-05-19T05:53:28.809Z,993.46
2018-05-19T05:54:29.153Z,993.47
2018-05-19T05:55:29.238Z,993.50
2018-05-19T05:56:29.560Z,993.51
2018-05-19T05:57:29.646Z,993.48
2018-05-19T05:58:29.948Z,993.49
2018-05-19T05:59:30.288Z,993.53
2018-05-19T06:00:30.383Z,993.52
2018-05-19T06:01:30.603Z,993.57
2018-05-19T06:02:30.817Z,993.55
2018-05-19T06:03:30.914Z,993.59
2018-05-19T06:04:31.121Z,993.60
2018-05-19T06:05:31.440Z,993.56
2018-05-19T06:06:31.547Z,993.62
2018-05-19T06:07:31.760Z,993.62
2018-05-19T06:08:32.294Z,993.66
2018-05-19T06:09:32.236Z,993.65
2018-05-19T06:10:32.362Z,993.63
2018-05-19T06:11:32.571Z,993.65
2018-05-19T06:12:32.640Z,993.68
2018-05-19T06:13:32.864Z,993.68
2018-05-19T06:14:35.488Z,993.68
2018-05-19T06:15:33.584Z,993.69
2018-05-19T06:16:36.892Z,993.75
2018-05-19T06:17:36.494Z,993.65
2018-05-19T06:18:33.900Z,993.70
2018-05-19T06:19:36.956Z,993.69
2018-05-19T06:20:34.175Z,993.69
2018-05-19T06:21:34.398Z,993.71
2018-05-19T06:22:34.607Z,993.71
2018-05-19T06:23:34.958Z,993.72
2018-05-19T06:24:39.245Z,993.75
2018-05-19T06:25:37.160Z,993.77
2018-05-19T06:26:35.519Z,993.77
2018-05-19T06:27:35.491Z,993.78
2018-05-19T06:28:35.695Z,993.74
2018-05-19T06:29:35.905Z,993.78
2018-05-19T06:30:36.128Z,993.77
2018-05-19T06:31:36.342Z,993.72
2018-05-19T06:32:36.556Z,993.71
2018-05-19T06:33:36.782Z,993.70
2018-05-19T06:34:36.996Z,993.71
2018-05-19T06:35:37.206Z,993.73
2018-05-19T06:36:37.431Z,993.75
2018-05-19T06:37:37.647Z,993.77
2018-05-19T06:38:37.870Z,993.79
2018-05-19T06:39:38.093Z,993.79
2018-05-19T06:40:38.319Z,993.81
2018-05-19T06:41:38.705Z,993.80
2018-05-19T06:42:38.721Z,993.81
2018-05-19T06:43:38.810Z,993.82
2018-05-19T06:44:40.871Z,993.81
2018-05-19T06:45:39.214Z,993.83
2018-05-19T06:46:39.549Z,993.81
2018-05-19T06:47:39.584Z,993.85
2018-05-19T06:48:39.801Z,993.82
2018-05-19T06:49:40.012Z,993.87
2018-05-19T06:50:40.302Z,993.82
2018-05-19T06:51:40.690Z,993.85
2018-05-19T06:52:42.537Z,993.80
2018-05-19T06:53:40.748Z,993.83
2018-05-19T06:54:40.962Z,993.86
2018-05-19T06:55:41.179Z,993.79
2018-05-19T06:56:41.391Z,993.78
2018-05-19T06:57:41.603Z,993.82
2018-05-19T06:58:41.819Z,993.85
2018-05-19T06:59:42.023Z,993.89
2018-05-19T07:00:42.242Z,993.88
2018-05-19T07:01:42.456Z,993.93
2018-05-19T07:02:42.709Z,993.93
2018-05-19T07:03:42.917Z,993.96
2018-05-19T07:04:43.124Z,993.93
2018-05-19T07:05:43.347Z,993.93
2018-05-19T07:06:43.559Z,993.93
2018-05-19T07:07:43.789Z,993.95
2018-05-19T07:08:44.015Z,993.93
2018-05-19T07:09:44.220Z,993.94
2018-05-19T07:10:44.442Z,993.97
2018-05-19T07:11:44.649Z,993.96
2018-05-19T07:12:44.863Z,993.97
2018-05-19T07:13:45.085Z,994.00
2018-05-19T07:14:45.305Z,994.02
2018-05-19T07:15:45.522Z,994.01
2018-05-19T07:16:47.360Z,993.99
2018-05-19T07:17:45.987Z,993.96
2018-05-19T07:18:46.091Z,994.02
2018-05-19T07:19:48.864Z,993.98
2018-05-19T07:20:46.451Z,994.00
2018-05-19T07:21:46.675Z,993.96
2018-05-19T07:22:46.913Z,993.96
2018-05-19T07:23:48.866Z,994.00
2018-05-19T07:24:47.324Z,994.01
2018-05-19T07:25:47.560Z,994.00
2018-05-19T07:26:47.786Z,994.05
